Time;durP1;ratioP1;P1;durP2;ratioP2;P2;SDS_P1;SDS_P2;PMS_P1;PMS_P2;Temp;Humidity;BMP_temperature;BMP_pressure;BME280_temperature;BME280_humidity;BME280_pressure;Samples;Min_cycle;Max_cycle;Signal;HPM_P1;HPM_P2
2022/08/23 00:01:23;;;;;;;8.25;7.30;;;17.50;99.90;;;;;;5110935;27;20043;-67
2022/08/23 00:03:52;;;;;;;9.50;8.10;;;17.50;99.90;;;;;;5114261;28;20501;-67
2022/08/23 00:06:24;;;;;;;10.60;7.57;;;17.40;99.90;;;;;;5093071;28;20067;-67
2022/08/23 00:08:52;;;;;;;9.82;8.55;;;17.40;99.90;;;;;;5105744;28;20130;-67
2022/08/23 00:11:30;;;;;;;9.73;8.18;;;17.40;99.90;;;;;;5107861;28;20112;-66
2022/08/23 00:14:01;;;;;;;14.43;8.23;;;17.30;99.90;;;;;;5098303;28;20079;-66
2022/08/23 00:16:28;;;;;;;11.13;7.93;;;17.30;99.90;;;;;;5120799;27;20428;-66
2022/08/23 00:18:56;;;;;;;9.45;7.70;;;17.30;99.90;;;;;;5108115;27;20051;-66
2022/08/23 00:21:23;;;;;;;10.55;8.30;;;17.30;99.90;;;;;;5117335;27;20561;-67
2022/08/23 00:23:51;;;;;;;9.45;7.40;;;17.30;99.90;;;;;;5121525;27;20046;-66
2022/08/23 00:26:19;;;;;;;11.20;7.90;;;17.30;99.90;;;;;;5118953;27;20035;-66
2022/08/23 00:28:48;;;;;;;9.50;7.95;;;17.20;99.90;;;;;;5121747;27;20111;-66
2022/08/23 00:31:17;;;;;;;12.95;8.15;;;17.20;99.90;;;;;;5126034;27;20408;-66
2022/08/23 00:33:45;;;;;;;11.27;7.60;;;17.10;99.90;;;;;;5113625;27;20048;-66
2022/08/23 00:36:12;;;;;;;10.68;7.75;;;17.10;99.90;;;;;;5110131;28;20525;-66
2022/08/23 00:38:40;;;;;;;9.57;7.25;;;17.10;99.90;;;;;;5110883;27;20112;-67
2022/08/23 00:41:08;;;;;;;8.70;7.80;;;17.00;99.90;;;;;;5124375;27;20047;-66
2022/08/23 00:49:13;;;;;;;9.75;7.07;;;16.90;99.90;;;;;;5109843;28;20579;-67
2022/08/23 00:51:44;;;;;;;11.48;8.07;;;16.80;99.90;;;;;;5109785;28;20043;-67
2022/08/23 00:54:22;;;;;;;11.27;8.07;;;16.80;99.90;;;;;;5110933;28;20122;-66
2022/08/23 00:56:51;;;;;;;7.88;7.13;;;16.70;99.90;;;;;;5121943;27;20470;-66
2022/08/23 00:59:18;;;;;;;10.02;8.07;;;16.70;99.90;;;;;;5128771;27;20058;-66
2022/08/23 01:01:47;;;;;;;9.85;8.00;;;16.60;99.90;;;;;;5120253;27;20500;-67
2022/08/23 01:04:16;;;;;;;8.27;7.43;;;16.60;99.90;;;;;;5113988;27;20036;-67
2022/08/23 01:06:49;;;;;;;9.77;7.75;;;16.50;99.90;;;;;;5099053;28;20039;-67
2022/08/23 01:09:20;;;;;;;12.52;8.27;;;16.50;99.90;;;;;;5107887;28;20036;-66
2022/08/23 01:11:53;;;;;;;10.77;7.88;;;16.40;99.90;;;;;;5108007;28;20063;-67
2022/08/23 01:14:29;;;;;;;8.57;7.68;;;16.30;99.90;;;;;;5105129;28;20047;-66
2022/08/23 01:17:21;;;;;;;9.30;7.88;;;16.30;99.90;;;;;;5115485;27;20490;-66
2022/08/23 01:19:58;;;;;;;12.18;8.20;;;16.20;99.90;;;;;;5118026;27;20116;-67
2022/08/23 01:22:44;;;;;;;16.02;8.23;;;16.20;99.90;;;;;;5115573;27;20097;-67
2022/08/23 01:25:16;;;;;;;9.52;8.00;;;16.10;99.90;;;;;;5121771;27;20143;-67
2022/08/23 01:27:44;;;;;;;14.03;7.70;;;16.10;99.90;;;;;;5109248;27;20656;-67
2022/08/23 01:30:20;;;;;;;8.73;7.45;;;16.10;99.90;;;;;;5119056;27;20035;-66
2022/08/23 01:32:52;;;;;;;10.25;8.43;;;16.00;99.90;;;;;;5100540;28;20044;-68
2022/08/23 01:35:22;;;;;;;;;;;16.00;99.90;;;;;;5089847;28;20399;-67
2022/08/23 01:37:55;;;;;;;9.13;7.63;;;16.00;99.90;;;;;;5099515;27;19923;-67
2022/08/23 01:40:23;;;;;;;10.20;7.72;;;15.90;99.90;;;;;;5093215;27;20517;-67
2022/08/23 01:42:50;;;;;;;13.00;8.02;;;15.90;99.90;;;;;;5110232;27;20043;-67
2022/08/23 01:45:18;;;;;;;9.18;7.35;;;16.00;99.90;;;;;;5108802;27;20035;-67
2022/08/23 01:47:46;;;;;;;9.07;7.53;;;16.00;99.90;;;;;;5109318;27;20411;-67
2022/08/23 01:50:14;;;;;;;9.70;7.85;;;16.00;99.90;;;;;;5117890;27;20191;-67
2022/08/23 01:52:43;;;;;;;11.15;7.40;;;16.00;99.90;;;;;;5121104;27;20104;-67
2022/08/23 01:55:14;;;;;;;11.50;7.68;;;16.00;99.90;;;;;;5105976;27;20072;-68
2022/08/23 01:57:43;;;;;;;10.30;7.28;;;16.00;99.90;;;;;;5110230;27;20047;-68
2022/08/23 02:00:18;;;;;;;9.68;7.43;;;16.00;99.90;;;;;;5117956;27;20047;-67
2022/08/23 02:02:45;;;;;;;9.68;7.43;;;15.90;99.90;;;;;;5116930;27;20493;-68
2022/08/23 02:05:14;;;;;;;11.25;7.90;;;15.90;99.90;;;;;;5087043;28;20469;-68
2022/08/23 02:07:46;;;;;;;9.82;7.40;;;15.90;99.90;;;;;;5122175;27;20434;-67
2022/08/23 02:10:16;;;;;;;10.93;8.40;;;15.90;99.90;;;;;;5093588;28;20131;-66
2022/08/23 02:12:45;;;;;;;9.68;7.88;;;15.90;99.90;;;;;;5104862;27;20424;-66
2022/08/23 02:15:16;;;;;;;13.60;7.57;;;15.90;99.90;;;;;;5122025;27;20047;-65
2022/08/23 02:17:46;;;;;;;11.50;7.78;;;15.90;99.90;;;;;;5102064;27;20485;-66
2022/08/23 02:20:14;;;;;;;9.57;7.35;;;15.90;99.90;;;;;;5102222;27;20081;-66
2022/08/23 02:22:41;;;;;;;10.13;7.40;;;15.80;99.90;;;;;;5100622;27;20375;-67
2022/08/23 02:25:09;;;;;;;12.65;7.82;;;15.80;99.90;;;;;;5120119;27;20035;-67
2022/08/23 02:27:36;;;;;;;8.48;7.13;;;15.70;99.90;;;;;;5111313;27;20125;-66
2022/08/23 02:30:11;;;;;;;10.02;7.50;;;15.70;99.90;;;;;;5122716;27;20050;-66
2022/08/23 02:32:39;;;;;;;9.60;7.65;;;15.70;99.90;;;;;;5118580;27;20039;-66
2022/08/23 02:35:06;;;;;;;9.18;7.80;;;15.70;99.90;;;;;;5108894;28;20044;-66
2022/08/23 02:37:35;;;;;;;9.63;7.75;;;15.70;99.90;;;;;;5107717;28;20040;-66
2022/08/23 02:40:05;;;;;;;9.48;7.80;;;15.70;99.90;;;;;;5089642;28;20115;-66
2022/08/23 02:42:33;;;;;;;11.88;8.40;;;15.70;99.90;;;;;;5085332;27;20046;-67
2022/08/23 02:45:02;;;;;;;8.07;7.28;;;15.70;99.90;;;;;;5115750;27;20505;-66
2022/08/23 02:47:31;;;;;;;11.88;7.90;;;15.70;99.90;;;;;;5120663;27;20503;-66
2022/08/23 02:50:15;;;;;;;8.50;7.70;;;15.70;99.90;;;;;;5104408;27;20043;-66
2022/08/23 02:52:43;;;;;;;9.32;7.97;;;15.70;99.90;;;;;;5108923;27;20402;-66
2022/08/23 02:55:11;;;;;;;8.95;7.22;;;15.70;99.90;;;;;;5117666;27;20043;-66
2022/08/23 02:57:39;;;;;;;10.35;7.53;;;15.60;99.90;;;;;;5119085;27;20454;-66
2022/08/23 03:00:11;;;;;;;8.48;7.07;;;15.60;99.90;;;;;;5103925;27;20031;-66
2022/08/23 03:02:39;;;;;;;11.73;7.53;;;15.60;99.90;;;;;;5118054;27;20035;-66
2022/08/23 03:05:08;;;;;;;9.10;7.80;;;15.50;99.90;;;;;;5105590;27;20336;-66
2022/08/23 03:07:36;;;;;;;11.63;8.65;;;15.50;99.90;;;;;;5111114;27;20589;-66
2022/08/23 03:10:05;;;;;;;9.57;7.80;;;15.50;99.90;;;;;;5093492;27;20425;-65
2022/08/23 03:12:36;;;;;;;9.10;7.82;;;15.50;99.90;;;;;;5112244;27;20088;-66
2022/08/23 03:15:05;;;;;;;10.10;8.32;;;15.40;99.90;;;;;;5107184;27;20035;-66
2022/08/23 03:17:34;;;;;;;11.38;8.60;;;15.40;99.90;;;;;;5114135;27;20071;-66
2022/08/23 03:20:05;;;;;;;12.50;8.27;;;15.40;99.90;;;;;;5110683;27;20568;-66
2022/08/23 03:22:33;;;;;;;10.13;8.52;;;15.30;99.90;;;;;;5116230;27;20608;-67
2022/08/23 03:25:00;;;;;;;9.65;8.45;;;15.30;99.90;;;;;;5121948;27;20031;-66
2022/08/23 03:27:39;;;;;;;9.77;8.15;;;15.20;99.90;;;;;;5126728;27;20080;-66
2022/08/23 03:30:11;;;;;;;12.45;8.00;;;15.20;99.90;;;;;;5126772;27;20043;-66
2022/08/23 03:32:52;;;;;;;10.43;7.93;;;15.20;99.90;;;;;;5114998;27;20151;-67
2022/08/23 03:35:20;;;;;;;11.43;8.45;;;15.10;99.90;;;;;;5081085;28;20051;-66
2022/08/23 03:37:47;;;;;;;10.90;8.23;;;15.10;99.90;;;;;;5109496;27;20392;-67
2022/08/23 03:40:21;;;;;;;11.40;8.68;;;15.00;99.90;;;;;;5121651;27;20112;-67
2022/08/23 03:42:50;;;;;;;8.85;7.95;;;15.00;99.90;;;;;;5120495;27;20059;-67
2022/08/23 03:45:20;;;;;;;11.77;8.68;;;14.90;99.90;;;;;;5090886;28;20052;-67
2022/08/23 03:47:48;;;;;;;11.98;8.02;;;14.90;99.90;;;;;;5099702;27;20055;-66
2022/08/23 03:50:16;;;;;;;15.85;8.45;;;14.90;99.90;;;;;;5092350;27;20039;-67
2022/08/23 03:52:43;;;;;;;10.70;8.77;;;14.80;99.90;;;;;;5110280;27;20151;-67
2022/08/23 03:55:11;;;;;;;9.25;8.23;;;14.80;99.90;;;;;;5109586;27;20036;-66
2022/08/23 03:57:42;;;;;;;11.70;9.27;;;14.80;99.90;;;;;;5096020;28;20041;-67
2022/08/23 04:00:13;;;;;;;16.30;8.82;;;14.80;99.90;;;;;;5109253;27;20490;-67
2022/08/23 04:02:49;;;;;;;11.40;9.10;;;14.70;99.90;;;;;;5110385;28;20524;-67
2022/08/23 04:05:17;;;;;;;11.10;8.43;;;14.70;99.90;;;;;;5100526;28;20039;-66
2022/08/23 04:07:58;;;;;;;10.90;8.20;;;14.70;99.90;;;;;;5102054;28;20386;-67
2022/08/23 04:10:25;;;;;;;10.35;8.45;;;14.70;99.90;;;;;;5108761;27;20319;-67
2022/08/23 04:12:55;;;;;;;10.55;8.75;;;14.70;99.90;;;;;;5114137;27;20052;-66
2022/08/23 04:15:23;;;;;;;10.18;8.93;;;14.70;99.90;;;;;;5111974;28;20455;-67
2022/08/23 04:17:51;;;;;;;12.57;8.55;;;14.70;99.90;;;;;;5110937;28;20031;-66
2022/08/23 04:20:19;;;;;;;11.93;8.50;;;14.70;99.90;;;;;;5106230;28;20420;-67
2022/08/23 04:22:53;;;;;;;13.10;8.63;;;14.70;99.90;;;;;;5115465;27;20476;-67
2022/08/23 04:25:26;;;;;;;10.57;8.73;;;14.70;99.90;;;;;;5110824;27;20070;-67
2022/08/23 04:28:04;;;;;;;12.00;9.17;;;14.60;99.90;;;;;;5103607;27;20395;-67
2022/08/23 04:30:33;;;;;;;13.25;9.15;;;14.70;99.90;;;;;;5110964;28;20045;-67
2022/08/23 04:33:03;;;;;;;9.85;8.30;;;14.60;99.90;;;;;;5092354;28;20059;-67
2022/08/23 04:35:37;;;;;;;10.27;8.48;;;14.70;99.90;;;;;;5090557;28;20176;-67
2022/08/23 04:38:04;;;;;;;11.57;8.85;;;14.70;99.90;;;;;;5089868;28;20055;-66
2022/08/23 04:43:59;;;;;;;10.98;8.43;;;14.80;99.90;;;;;;5045217;28;20049;-66
2022/08/23 04:46:28;;;;;;;12.20;8.75;;;14.80;99.90;;;;;;5063198;28;20044;-67
2022/08/23 04:48:59;;;;;;;10.27;8.13;;;14.80;99.90;;;;;;5045551;28;20041;-67
2022/08/23 04:51:27;;;;;;;9.63;8.23;;;14.80;99.90;;;;;;5010603;28;20049;-66
2022/08/23 04:53:55;;;;;;;10.05;8.20;;;14.80;99.90;;;;;;5042155;28;20506;-67
2022/08/23 04:56:40;;;;;;;13.07;8.77;;;14.80;99.90;;;;;;5045940;28;20040;-68
2022/08/23 04:59:09;;;;;;;11.23;8.27;;;14.90;99.90;;;;;;5050093;28;20082;-67
2022/08/23 05:01:41;;;;;;;9.85;8.07;;;14.90;99.90;;;;;;5050691;28;20470;-67
2022/08/23 05:04:09;;;;;;;12.05;8.88;;;14.90;99.90;;;;;;5046679;28;20080;-67
2022/08/23 05:06:38;;;;;;;12.18;8.88;;;14.90;99.90;;;;;;5060109;28;20055;-67
2022/08/23 05:09:06;;;;;;;14.32;8.75;;;14.90;99.90;;;;;;5034313;28;20040;-67
2022/08/23 05:11:34;;;;;;;10.95;7.50;;;14.90;99.90;;;;;;5066008;28;20059;-66
2022/08/23 05:14:02;;;;;;;14.25;9.02;;;15.00;99.90;;;;;;5051167;28;20044;-67
2022/08/23 05:16:30;;;;;;;9.15;8.25;;;15.00;99.90;;;;;;5067218;28;20123;-67
2022/08/23 05:19:02;;;;;;;10.30;7.75;;;15.00;99.90;;;;;;5100550;27;20071;-67
2022/08/23 05:21:32;;;;;;;12.68;9.45;;;15.10;99.90;;;;;;5115865;27;20039;-67
2022/08/23 05:24:01;;;;;;;12.27;9.65;;;15.20;99.90;;;;;;5099249;27;20048;-67
2022/08/23 05:26:30;;;;;;;11.07;9.57;;;15.30;99.90;;;;;;5107767;27;20111;-68
2022/08/23 05:28:57;;;;;;;10.73;8.55;;;15.30;99.90;;;;;;5074190;28;20067;-67
2022/08/23 05:31:31;;;;;;;13.55;8.77;;;15.30;99.90;;;;;;5096765;27;20036;-67
2022/08/23 05:34:01;;;;;;;11.13;8.68;;;15.40;99.90;;;;;;5103105;27;20112;-67
2022/08/23 05:36:39;;;;;;;10.02;8.60;;;15.50;99.90;;;;;;5119781;27;20051;-67
2022/08/23 05:39:23;;;;;;;11.15;9.18;;;15.60;99.90;;;;;;5094328;27;20043;-67
2022/08/23 05:42:10;;;;;;;9.00;8.05;;;15.60;99.90;;;;;;5105778;27;20054;-67
2022/08/23 05:44:37;;;;;;;9.60;8.32;;;15.70;99.90;;;;;;5084563;28;20036;-67
2022/08/23 05:47:09;;;;;;;9.27;7.80;;;15.80;99.90;;;;;;5105272;27;20036;-68
2022/08/23 05:50:01;;;;;;;9.43;7.60;;;15.80;99.90;;;;;;5093073;27;20162;-67
2022/08/23 05:52:32;;;;;;;11.45;9.00;;;16.00;99.90;;;;;;5100930;27;20057;-67
2022/08/23 05:55:00;;;;;;;11.45;7.68;;;16.10;99.90;;;;;;5097587;27;20044;-67
2022/08/23 05:57:51;;;;;;;16.30;9.68;;;16.10;99.90;;;;;;5085626;27;20077;-67
2022/08/23 06:00:19;;;;;;;12.43;8.77;;;16.20;99.90;;;;;;5095037;27;20036;-67
2022/08/23 06:02:58;;;;;;;9.85;7.95;;;16.30;99.90;;;;;;5078759;27;20071;-67
2022/08/23 06:05:26;;;;;;;13.52;9.07;;;16.40;99.90;;;;;;5098664;28;20036;-67
2022/08/23 06:07:54;;;;;;;13.52;9.02;;;16.50;99.90;;;;;;5119172;27;20043;-66
2022/08/23 06:10:23;;;;;;;12.52;8.75;;;16.50;99.90;;;;;;5124750;27;20039;-67
2022/08/23 06:13:02;;;;;;;11.45;9.00;;;16.60;99.90;;;;;;5106585;27;20031;-66
2022/08/23 06:15:31;;;;;;;13.25;8.80;;;16.80;99.90;;;;;;5110676;27;20039;-68
2022/08/23 06:17:58;;;;;;;10.00;7.78;;;16.80;99.90;;;;;;5100774;27;20096;-68
2022/08/23 06:20:26;;;;;;;11.75;7.47;;;16.90;99.90;;;;;;5106006;27;20573;-67
2022/08/23 06:22:59;;;;;;;11.05;7.20;;;17.10;99.90;;;;;;5110279;27;20039;-67
2022/08/23 06:25:27;;;;;;;9.30;7.90;;;17.60;99.90;;;;;;5104943;27;20036;-66
2022/08/23 06:28:09;;;;;;;13.43;9.02;;;18.10;99.90;;;;;;5107371;27;20525;-66
2022/08/23 06:30:38;;;;;;;12.27;8.38;;;18.50;99.90;;;;;;5109419;27;20481;-68
2022/08/23 06:33:17;;;;;;;12.50;8.20;;;18.60;99.90;;;;;;5106387;28;20597;-67
2022/08/23 06:35:44;;;;;;;14.40;9.52;;;18.60;99.90;;;;;;5121656;27;20077;-66
2022/08/23 06:38:19;;;;;;;12.50;8.85;;;18.50;99.90;;;;;;5106024;28;20067;-68
2022/08/23 06:40:46;;;;;;;13.18;9.13;;;18.50;99.90;;;;;;5119946;27;20131;-66
2022/08/23 06:43:24;;;;;;;12.27;8.65;;;18.50;99.90;;;;;;5105952;28;20116;-66
2022/08/23 06:46:21;;;;;;;13.30;9.20;;;18.50;99.90;;;;;;5095270;27;20477;-66
2022/08/23 06:48:51;;;;;;;11.60;8.68;;;18.50;99.90;;;;;;5125264;27;20050;-66
2022/08/23 06:51:29;;;;;;;13.60;9.23;;;18.60;99.90;;;;;;5107382;28;20044;-66
2022/08/23 06:54:18;;;;;;;11.02;8.75;;;18.70;99.90;;;;;;5120274;27;20051;-66
2022/08/23 06:56:52;;;;;;;11.50;8.48;;;18.70;99.90;;;;;;5107751;28;20035;-68
2022/08/23 06:59:24;;;;;;;14.55;8.90;;;18.80;99.90;;;;;;5109344;27;20085;-66
2022/08/23 07:02:13;;;;;;;11.88;9.57;;;18.80;99.90;;;;;;5106681;28;20089;-67
2022/08/23 07:04:59;;;;;;;15.70;8.90;;;18.80;99.90;;;;;;5091307;28;20036;-67
2022/08/23 07:07:29;;;;;;;14.43;9.00;;;19.00;99.90;;;;;;5102629;28;20054;-66
2022/08/23 07:10:08;;;;;;;13.63;8.98;;;19.00;99.90;;;;;;5096701;28;20073;-66
2022/08/23 07:12:43;;;;;;;10.57;8.45;;;19.10;99.90;;;;;;5101174;27;20047;-66
2022/08/23 07:15:12;;;;;;;12.52;9.25;;;19.20;99.90;;;;;;5103871;27;20549;-66
2022/08/23 07:17:42;;;;;;;10.25;8.57;;;19.10;99.90;;;;;;5104012;28;20051;-67
2022/08/23 07:20:10;;;;;;;10.23;8.05;;;19.10;99.90;;;;;;5103561;28;20524;-66
2022/08/23 07:22:40;;;;;;;10.32;8.20;;;19.30;99.90;;;;;;5111866;27;20044;-65
2022/08/23 07:25:08;;;;;;;9.52;8.52;;;19.40;99.90;;;;;;5111547;27;20424;-67
2022/08/23 07:27:37;;;;;;;9.85;8.32;;;19.50;99.90;;;;;;5096653;27;20047;-66
2022/08/23 07:30:08;;;;;;;9.05;7.50;;;19.60;99.90;;;;;;5106711;28;20043;-66
2022/08/23 07:32:39;;;;;;;8.88;7.38;;;19.70;99.90;;;;;;5115427;27;20480;-65
2022/08/23 07:35:25;;;;;;;9.70;7.70;;;19.80;99.90;;;;;;5105045;27;20051;-66
2022/08/23 07:37:56;;;;;;;9.70;7.93;;;20.00;99.90;;;;;;5114150;27;20099;-66
2022/08/23 07:40:28;;;;;;;8.18;7.32;;;20.00;99.90;;;;;;5095638;28;20062;-66
2022/08/23 07:43:01;;;;;;;;;;;20.20;99.90;;;;;;5119629;27;20552;-67
2022/08/23 07:45:30;;;;;;;9.68;7.50;;;20.30;99.90;;;;;;5103315;27;19953;-65
2022/08/23 07:48:01;;;;;;;12.63;8.40;;;20.40;99.90;;;;;;5102171;27;20039;-66
2022/08/23 07:50:33;;;;;;;10.57;7.40;;;20.40;99.90;;;;;;5094048;28;20059;-65
2022/08/23 07:53:02;;;;;;;10.50;8.02;;;20.60;99.90;;;;;;5096589;27;20039;-66
2022/08/23 07:55:30;;;;;;;9.13;7.78;;;20.70;99.90;;;;;;5103227;27;20044;-66
2022/08/23 07:57:57;;;;;;;8.73;7.50;;;20.70;99.90;;;;;;5091976;28;20566;-66
2022/08/23 08:00:45;;;;;;;9.35;8.27;;;20.80;99.90;;;;;;5096272;28;20094;-66
2022/08/23 08:03:34;;;;;;;10.38;7.07;;;20.90;99.90;;;;;;5091236;28;20054;-67
2022/08/23 08:06:13;;;;;;;9.65;8.00;;;21.00;99.90;;;;;;5102907;28;20051;-66
2022/08/23 08:08:42;;;;;;;8.70;7.80;;;21.10;99.90;;;;;;5101495;28;20442;-67
2022/08/23 08:11:10;;;;;;;8.57;7.35;;;21.10;99.90;;;;;;5104489;28;20681;-65
2022/08/23 08:13:40;;;;;;;10.50;7.80;;;21.20;99.90;;;;;;5100099;28;20515;-67
2022/08/23 08:16:08;;;;;;;8.93;8.02;;;21.30;99.90;;;;;;5120213;27;20038;-64
2022/08/23 08:18:39;;;;;;;11.80;7.78;;;21.40;99.90;;;;;;5115962;28;20047;-67
2022/08/23 08:21:46;;;;;;;11.13;7.75;;;21.50;99.90;;;;;;5080160;28;20047;-67
2022/08/23 08:24:33;;;;;;;9.05;7.50;;;21.60;99.90;;;;;;5094185;28;20044;-66
2022/08/23 08:27:05;;;;;;;8.55;7.65;;;21.80;99.90;;;;;;5110076;28;20035;-67
2022/08/23 08:29:34;;;;;;;9.23;7.60;;;21.80;99.90;;;;;;5087602;28;20056;-66
2022/08/23 08:32:01;;;;;;;11.75;7.68;;;21.80;99.90;;;;;;5120564;27;20051;-66
2022/08/23 08:34:28;;;;;;;10.98;7.68;;;21.60;99.90;;;;;;5111905;28;20048;-65
2022/08/23 08:36:57;;;;;;;9.05;7.57;;;21.60;99.90;;;;;;5124553;27;20055;-64
2022/08/23 08:39:31;;;;;;;11.15;7.78;;;21.80;99.90;;;;;;5110361;28;20414;-67
2022/08/23 08:42:11;;;;;;;10.70;7.60;;;21.90;99.90;;;;;;5109867;27;20051;-66
2022/08/23 08:44:48;;;;;;;12.98;7.68;;;22.00;99.90;;;;;;5120946;27;20497;-66
2022/08/23 08:47:23;;;;;;;9.10;7.10;;;22.10;99.90;;;;;;5104075;27;20036;-65
2022/08/23 08:50:18;;;;;;;8.77;6.68;;;22.20;99.90;;;;;;5122420;27;20051;-66
2022/08/23 08:53:12;;;;;;;8.38;6.32;;;22.50;99.90;;;;;;5102713;28;20580;-65
2022/08/23 08:56:06;;;;;;;7.78;6.65;;;22.70;99.90;;;;;;5113043;27;20059;-65
2022/08/23 08:59:02;;;;;;;6.93;5.65;;;22.70;99.90;;;;;;5124030;27;20046;-65
2022/08/23 09:01:33;;;;;;;6.68;6.05;;;22.90;99.90;;;;;;5091231;27;20384;-66
2022/08/23 09:04:02;;;;;;;6.60;6.00;;;22.80;99.90;;;;;;5101840;27;20047;-67
2022/08/23 09:06:48;;;;;;;9.48;6.10;;;22.90;99.90;;;;;;5115972;27;20130;-65
2022/08/23 09:09:18;;;;;;;7.15;6.15;;;23.00;99.90;;;;;;5127080;27;20067;-67
2022/08/23 09:11:57;;;;;;;6.70;6.00;;;23.00;99.90;;;;;;5122677;27;20119;-66
2022/08/23 09:14:53;;;;;;;7.15;6.43;;;23.00;99.90;;;;;;5089616;27;20040;-66
2022/08/23 09:17:39;;;;;;;7.13;6.40;;;23.20;99.90;;;;;;5088504;28;20092;-65
2022/08/23 09:20:08;;;;;;;7.10;6.15;;;23.30;99.90;;;;;;5112057;27;20530;-68
2022/08/23 09:22:41;;;;;;;8.00;6.30;;;23.40;99.90;;;;;;5101644;27;20135;-66
2022/08/23 09:25:18;;;;;;;7.75;6.50;;;23.50;99.90;;;;;;5109460;27;20563;-67
2022/08/23 09:27:55;;;;;;;8.68;5.90;;;23.60;99.90;;;;;;5105929;27;20046;-66
2022/08/23 09:30:46;;;;;;;6.95;5.90;;;23.50;99.90;;;;;;5112449;27;20043;-67
2022/08/23 09:33:18;;;;;;;7.07;5.68;;;23.70;99.90;;;;;;5102983;27;20100;-66
2022/08/23 09:36:12;;;;;;;7.90;6.18;;;23.80;99.90;;;;;;5122519;27;20039;-67
2022/08/23 09:39:12;;;;;;;6.20;5.70;;;23.90;99.90;;;;;;5119592;27;20039;-67
2022/08/23 09:41:42;;;;;;;6.63;6.03;;;24.10;99.90;;;;;;5117694;27;20130;-67
2022/08/23 09:44:12;;;;;;;7.30;5.80;;;24.20;99.90;;;;;;5090093;28;20568;-67
2022/08/23 09:46:42;;;;;;;;;;;24.40;99.90;;;;;;5097293;27;20126;-66
2022/08/23 09:49:28;;;;;;;9.32;6.38;;;24.40;99.90;;;;;;5104610;27;20347;-67
2022/08/23 09:52:18;;;;;;;6.80;6.18;;;24.50;99.90;;;;;;5104010;27;20035;-67
2022/08/23 09:55:01;;;;;;;7.60;6.60;;;24.70;99.90;;;;;;5089757;27;20592;-65
2022/08/23 09:57:32;;;;;;;7.53;6.60;;;24.50;99.90;;;;;;5105295;27;20101;-67
2022/08/23 10:00:20;;;;;;;8.13;6.30;;;24.50;99.90;;;;;;5113182;27;20069;-66
2022/08/23 10:02:56;;;;;;;6.60;5.90;;;24.60;99.90;;;;;;5112892;27;20039;-67
2022/08/23 10:05:37;;;;;;;6.00;5.50;;;24.40;99.90;;;;;;5099525;28;20044;-67
2022/08/23 10:08:09;;;;;;;;;;;24.60;99.90;;;;;;5113434;27;20092;-66
2022/08/23 10:10:47;;;;;;;8.07;5.95;;;24.70;99.90;;;;;;5116381;27;19946;-65
2022/08/23 10:13:22;;;;;;;6.25;5.65;;;24.70;99.90;;;;;;5114225;27;20050;-66
2022/08/23 10:16:04;;;;;;;6.78;6.18;;;24.80;99.90;;;;;;5118937;27;20078;-66
2022/08/23 10:18:53;;;;;;;7.43;6.50;;;24.90;99.90;;;;;;5093174;28;20055;-67
2022/08/23 10:21:40;;;;;;;8.00;6.30;;;24.90;99.90;;;;;;5117694;27;20104;-66
2022/08/23 10:24:21;;;;;;;6.72;6.13;;;24.70;99.90;;;;;;5085171;27;20058;-67
2022/08/23 10:30:12;;;;;;;6.90;5.68;;;24.90;99.90;;;;;;5123289;27;20073;-68
2022/08/23 10:33:11;;;;;;;6.47;5.80;;;25.00;99.90;;;;;;5103240;27;20036;-68
2022/08/23 10:36:26;;;;;;;6.25;5.65;;;25.10;99.90;;;;;;5108461;27;20450;-67
2022/08/23 10:39:02;;;;;;;5.97;5.38;;;25.00;99.90;;;;;;5110834;27;20104;-67
2022/08/23 10:41:46;;;;;;;6.30;5.80;;;25.30;99.90;;;;;;5093782;28;20067;-67
2022/08/23 10:44:24;;;;;;;6.53;6.03;;;25.30;99.90;;;;;;5096778;27;20080;-68
2022/08/23 10:47:14;;;;;;;5.90;5.38;;;25.30;99.90;;;;;;5097853;27;20047;-68
2022/08/23 10:49:45;;;;;;;6.35;5.75;;;25.60;99.90;;;;;;5106939;27;20048;-68
2022/08/23 10:52:23;;;;;;;6.55;5.95;;;25.90;99.90;;;;;;5090879;28;20078;-68
2022/08/23 10:55:15;;;;;;;6.22;5.72;;;26.10;99.90;;;;;;5109950;27;20110;-67
2022/08/23 10:57:46;;;;;;;6.60;6.00;;;26.30;99.90;;;;;;5097913;27;20043;-68
2022/08/23 11:00:21;;;;;;;7.32;5.95;;;26.60;99.40;;;;;;5108575;27;20044;-68
2022/08/23 11:02:53;;;;;;;8.80;5.70;;;26.30;99.90;;;;;;5087273;27;20043;-69
2022/08/23 11:05:31;;;;;;;6.53;5.40;;;26.30;99.60;;;;;;5090588;28;21564;-69
2022/08/23 11:08:22;;;;;;;6.30;5.70;;;26.40;99.80;;;;;;5120755;27;20074;-68
2022/08/23 11:10:51;;;;;;;6.45;5.95;;;26.30;99.10;;;;;;5110983;27;20506;-67
2022/08/23 11:13:33;;;;;;;6.07;5.57;;;26.40;99.10;;;;;;5104469;27;20496;-70
2022/08/23 11:16:24;;;;;;;6.07;5.47;;;26.70;98.00;;;;;;5084774;28;20051;-67
2022/08/23 11:18:51;;;;;;;7.47;5.20;;;26.80;97.20;;;;;;5095516;27;20073;-67
2022/08/23 11:21:44;;;;;;;5.90;5.30;;;27.20;96.30;;;;;;5097708;27;20042;-67
2022/08/23 11:24:13;;;;;;;5.55;5.05;;;27.30;94.60;;;;;;5117283;27;20493;-68
2022/08/23 11:26:45;;;;;;;5.75;5.25;;;27.20;93.90;;;;;;5105304;27;20459;-67
2022/08/23 11:29:22;;;;;;;5.45;5.05;;;27.40;93.30;;;;;;5114363;27;20039;-66
2022/08/23 11:32:36;;;;;;;6.00;5.40;;;27.50;93.10;;;;;;5118085;27;20062;-66
2022/08/23 11:35:10;;;;;;;5.18;4.78;;;27.80;91.90;;;;;;5111313;27;20062;-67
2022/08/23 11:37:49;;;;;;;5.53;5.03;;;27.80;91.10;;;;;;5104528;27;20036;-67
2022/08/23 11:40:50;;;;;;;5.47;5.00;;;28.00;91.50;;;;;;5114930;27;20051;-67
2022/08/23 11:43:32;;;;;;;5.68;5.20;;;28.50;90.70;;;;;;5096764;27;20054;-67
2022/08/23 11:46:25;;;;;;;5.82;5.30;;;28.40;90.00;;;;;;5121844;27;20092;-65
2022/08/23 11:49:12;;;;;;;5.70;5.20;;;28.60;88.90;;;;;;5114719;27;20490;-67
2022/08/23 11:51:59;;;;;;;5.40;4.90;;;28.60;89.30;;;;;;5114857;27;20101;-66
2022/08/23 11:54:59;;;;;;;7.18;6.47;;;29.20;88.40;;;;;;5121857;27;20485;-68
2022/08/23 11:57:51;;;;;;;6.68;6.10;;;29.80;85.30;;;;;;5067653;28;20079;-66
2022/08/23 12:00:53;;;;;;;6.03;5.43;;;30.40;84.10;;;;;;5074790;28;20052;-67
2022/08/23 12:03:36;;;;;;;6.38;5.88;;;30.40;82.10;;;;;;5067798;28;20040;-67
2022/08/23 12:06:19;;;;;;;5.75;5.30;;;30.50;81.80;;;;;;5067890;28;20059;-66
2022/08/23 12:08:55;;;;;;;6.10;5.50;;;31.10;79.80;;;;;;5068459;28;20442;-67
2022/08/23 12:11:25;;;;;;;5.70;5.20;;;31.70;78.00;;;;;;5079506;28;20047;-66
2022/08/23 12:13:59;;;;;;;5.68;5.18;;;31.40;76.20;;;;;;5073610;28;20119;-66
2022/08/23 12:16:31;;;;;;;5.65;5.25;;;31.30;76.50;;;;;;5079275;28;20122;-66
2022/08/23 12:19:06;;;;;;;5.70;5.30;;;31.30;75.50;;;;;;5038895;28;20163;-64
2022/08/23 12:21:47;;;;;;;6.28;5.68;;;31.50;76.00;;;;;;5060177;28;20131;-65
2022/08/23 12:24:31;;;;;;;6.25;5.75;;;31.50;76.10;;;;;;5075172;28;20091;-66
2022/08/23 12:27:16;;;;;;;6.20;5.72;;;31.40;76.40;;;;;;5074627;28;20102;-66
2022/08/23 12:29:47;;;;;;;6.28;5.78;;;31.50;76.00;;;;;;5059211;28;20096;-65
2022/08/23 12:32:28;;;;;;;5.95;5.55;;;31.90;75.60;;;;;;5090105;28;20053;-66
2022/08/23 12:35:24;;;;;;;6.68;6.07;;;32.20;75.20;;;;;;5104367;28;20071;-66
2022/08/23 12:38:19;;;;;;;6.75;6.25;;;32.90;72.70;;;;;;5108442;27;20468;-67
2022/08/23 12:40:50;;;;;;;6.53;6.03;;;33.60;72.30;;;;;;5124099;27;20031;-66
2022/08/23 12:43:25;;;;;;;6.78;6.22;;;33.70;69.10;;;;;;5119648;27;20173;-68
2022/08/23 12:45:54;;;;;;;6.10;5.70;;;34.30;68.60;;;;;;5118236;27;20423;-67
2022/08/23 12:48:25;;;;;;;6.50;6.00;;;34.80;68.20;;;;;;5120044;27;20040;-66
2022/08/23 12:51:02;;;;;;;6.40;5.90;;;35.10;67.00;;;;;;5127118;27;20035;-66
2022/08/23 12:53:35;;;;;;;6.90;6.40;;;35.40;65.60;;;;;;5128389;27;20134;-68
2022/08/23 12:56:17;;;;;;;6.95;6.45;;;35.60;65.40;;;;;;5122907;27;20047;-67
2022/08/23 12:58:50;;;;;;;6.90;6.30;;;35.70;64.00;;;;;;5104892;27;20074;-67
2022/08/23 13:01:24;;;;;;;6.47;5.97;;;35.10;64.00;;;;;;5118890;27;20055;-67
2022/08/23 13:04:05;;;;;;;5.88;5.47;;;35.20;62.50;;;;;;5117502;27;20062;-68
2022/08/23 13:06:55;;;;;;;6.50;5.90;;;35.80;61.20;;;;;;5120902;27;20043;-67
2022/08/23 13:09:28;;;;;;;6.55;6.00;;;35.70;62.00;;;;;;5109528;27;20116;-68
2022/08/23 13:11:58;;;;;;;6.43;5.93;;;35.90;61.40;;;;;;5107234;27;20039;-67
2022/08/23 13:14:43;;;;;;;6.68;6.18;;;36.30;60.80;;;;;;5117000;27;20755;-66
2022/08/23 13:17:25;;;;;;;6.13;5.63;;;36.90;59.70;;;;;;5104231;27;20047;-67
2022/08/23 13:20:21;;;;;;;6.22;5.82;;;37.40;58.90;;;;;;5108329;27;20421;-67
2022/08/23 13:23:04;;;;;;;6.75;6.10;;;38.00;57.30;;;;;;5094680;27;20483;-68
2022/08/23 13:25:41;;;;;;;7.95;5.88;;;38.50;56.40;;;;;;5080333;28;20429;-66
2022/08/23 13:28:23;;;;;;;6.20;5.60;;;38.30;55.40;;;;;;5112772;27;20042;-67
2022/08/23 13:31:03;;;;;;;6.00;5.60;;;38.50;54.60;;;;;;5111566;27;20943;-66
2022/08/23 13:33:30;;;;;;;5.03;4.63;;;39.50;53.70;;;;;;5121487;27;20468;-67
2022/08/23 13:36:18;;;;;;;6.35;5.85;;;40.80;52.30;;;;;;5108337;27;20131;-66